createdAt,value
2023-05-10T00:06:42.973Z,0
2023-05-10T00:12:01.870Z,0
2023-05-10T00:22:41.218Z,0
2023-05-10T00:33:19.400Z,0
2023-05-10T00:38:38.475Z,0
2023-05-10T00:49:16.519Z,0
2023-05-10T00:54:35.490Z,0
2023-05-10T01:05:13.637Z,0
2023-05-10T01:15:51.486Z,0
2023-05-10T01:21:10.939Z,0
2023-05-10T01:31:49.296Z,0
2023-05-10T01:37:08.996Z,0
2023-05-10T01:47:48.217Z,0
2023-05-10T02:03:46.263Z,0
2023-05-10T02:14:24.829Z,0
2023-05-10T02:19:43.599Z,0
2023-05-10T02:30:22.312Z,0
2023-05-10T02:35:41.264Z,0
2023-05-10T02:46:19.965Z,0
2023-05-10T02:56:58.837Z,0
2023-05-10T03:02:17.683Z,0
2023-05-10T03:02:42.014Z,0
2023-05-10T03:13:20.900Z,0
2023-05-10T03:24:00.283Z,0
2023-05-10T03:29:19.554Z,0
2023-05-10T03:39:58.068Z,0.006
2023-05-10T03:45:17.392Z,0.0113
2023-05-10T03:55:55.261Z,0.0273
2023-05-10T04:11:53.100Z,0.036
2023-05-10T04:22:31.961Z,0.0489
2023-05-10T04:27:51.208Z,0.0483
2023-05-10T04:38:29.184Z,0.0578
2023-05-10T04:54:26.714Z,0.0832
2023-05-10T05:05:04.490Z,0.0892
2023-05-10T05:10:23.602Z,0.1119
2023-05-10T05:21:01.463Z,0.1299
2023-05-10T05:26:21.421Z,0.1899
2023-05-10T05:36:59.690Z,0.2786
2023-05-10T05:47:38.931Z,0.3864
2023-05-10T05:52:57.302Z,0.36
2023-05-10T06:03:35.108Z,0.4635
2023-05-10T06:08:55.331Z,0.3288
2023-05-10T06:19:33.967Z,0.1846
2023-05-10T06:35:31.305Z,0.4431
2023-05-10T06:46:10.760Z,0.3555
2023-05-10T06:51:30.503Z,0.4286
2023-05-10T07:02:08.774Z,0.3999
2023-05-10T07:07:27.719Z,0.4694
2023-05-10T07:28:46.384Z,0.4309
2023-05-10T07:34:04.085Z,0.4988
2023-05-10T07:44:43.198Z,0.4854
2023-05-10T07:50:02.904Z,0.499
2023-05-10T08:00:41.012Z,0.7192
2023-05-10T08:16:38.406Z,0.6563
2023-05-10T08:27:16.963Z,0.4477
2023-05-10T08:32:36.329Z,0.3788
2023-05-10T08:43:15.036Z,0.4759
2023-05-10T08:48:34.142Z,0.3761
2023-05-10T08:59:12.500Z,0.1898
2023-05-10T09:09:51.148Z,0.3564
2023-05-10T09:15:10.351Z,0.6019
2023-05-10T09:25:48.745Z,0.8477
2023-05-10T09:31:08.175Z,0.8653
2023-05-10T09:41:45.754Z,0.584
2023-05-10T09:52:24.996Z,0.6118
2023-05-10T10:03:03.197Z,0.8704
2023-05-10T10:08:21.974Z,0.8372
2023-05-10T10:18:59.900Z,0.7861
2023-05-10T10:34:57.118Z,1.1914
2023-05-10T10:45:35.840Z,0.7694
2023-05-10T10:50:54.986Z,0.5965
2023-05-10T11:01:33.389Z,0.9992
2023-05-10T11:06:52.261Z,0.9483
2023-05-10T11:17:31.523Z,0.6334
2023-05-10T11:28:09.595Z,0.6917
2023-05-10T11:33:28.653Z,0.7192
2023-05-10T11:44:06.815Z,0.6397
2023-05-10T12:00:04.236Z,0.926
2023-05-10T12:10:41.946Z,0.4778
2023-05-10T12:16:01.563Z,0.2911
2023-05-10T12:26:39.534Z,0.386
2023-05-10T12:31:58.830Z,0.4507
2023-05-10T12:42:37.737Z,0.4419
2023-05-10T12:58:36.144Z,0.5854
2023-05-10T13:09:14.010Z,0.2157
2023-05-10T13:14:33.647Z,0.1615
2023-05-10T13:25:11.811Z,0.1938
2023-05-10T13:41:09.335Z,0.2943
2023-05-10T13:51:48.001Z,0.2731
2023-05-10T13:57:06.705Z,0.3078
2023-05-10T14:07:44.611Z,0.2924
2023-05-10T14:13:03.618Z,0.2643
2023-05-10T14:23:42.584Z,0.1693
2023-05-10T14:34:21.392Z,0.1499
2023-05-10T14:39:40.356Z,0.1469
2023-05-10T14:50:35.061Z,0.1692
2023-05-10T14:55:39.660Z,0.214
2023-05-10T15:06:16.949Z,0.2827
2023-05-10T15:22:14.476Z,0.3696
2023-05-10T15:32:52.418Z,0.3105
2023-05-10T15:38:11.712Z,0.2924
2023-05-10T15:48:50.402Z,0.3071
2023-05-10T16:04:47.691Z,0.3301
2023-05-10T16:15:26.014Z,0.3242
2023-05-10T16:20:45.036Z,0.3087
2023-05-10T16:31:23.422Z,0.2668
2023-05-10T16:42:01.851Z,0.2551
2023-05-10T16:57:58.733Z,0.2033
2023-05-10T17:08:36.711Z,0.1633
2023-05-10T17:13:55.841Z,0.1548
2023-05-10T17:24:33.356Z,0.1279
2023-05-10T17:30:02.392Z,0.1168
2023-05-10T17:40:31.759Z,0.0948
2023-05-10T17:51:10.013Z,0.076
2023-05-10T17:56:29.499Z,0.066
2023-05-10T18:07:08.099Z,0.0537
2023-05-10T18:23:06.104Z,0.0388
2023-05-10T18:33:44.676Z,0.0303
2023-05-10T18:39:03.440Z,0.027
2023-05-10T18:49:41.353Z,0.0172
2023-05-10T18:54:59.784Z,0.0173
2023-05-10T19:05:38.695Z,0
2023-05-10T19:16:16.804Z,0
2023-05-10T19:21:35.937Z,0
2023-05-10T19:32:14.241Z,0
2023-05-10T19:37:33.500Z,0
2023-05-10T19:48:11.742Z,0
2023-05-10T20:04:09.192Z,0
2023-05-10T20:14:46.639Z,0
2023-05-10T20:20:05.624Z,0
2023-05-10T20:30:44.072Z,0
2023-05-10T20:36:03.721Z,0
2023-05-10T20:46:51.874Z,0
2023-05-10T20:52:44.336Z,0
2023-05-10T21:03:23.266Z,0
2023-05-10T21:08:33.214Z,0
2023-05-10T21:19:12.617Z,0
2023-05-10T21:35:17.783Z,0
2023-05-10T21:51:07.114Z,0
2023-05-10T22:01:45.754Z,0
2023-05-10T22:07:14.860Z,0
2023-05-10T22:17:43.480Z,0
2023-05-10T22:28:22.208Z,0
2023-05-10T22:33:50.830Z,0
2023-05-10T22:44:29.170Z,0
2023-05-10T23:00:18.360Z,0
2023-05-10T23:10:56.276Z,0
2023-05-10T23:16:15.493Z,0
2023-05-10T23:26:54.074Z,0
2023-05-10T23:37:32.036Z,0
2023-05-10T23:53:29.723Z,0
